This is the latest recevied weather packets stored in our database for station/object N0EDB-13. If no packets are shown the sender has not sent any weather packets the latest 10 day(s).
| Time | Temp. | Humidity | Pressure | Rain* | Wind** | Luminosity | Snow |
|---|---|---|---|---|---|---|---|
| 1777640659 | 1.11° C | 86% | 1536.8 hPa | 0 mm | - | 119 W/m² | - |
| 1777640359 | 0.56° C | 88% | 1538.4 hPa | 0 mm | - | 105 W/m² | - |
| 1777640059 | 0° C | 88% | 1539.8 hPa | 0 mm | - | 91 W/m² | - |
| 1777639758 | 0° C | 88% | 1540.7 hPa | 0 mm | - | 48 W/m² | - |
| 1777639457 | 0° C | 89% | 1540.8 hPa | 0 mm | - | 34 W/m² | - |
| 1777639156 | 0° C | 90% | 1540.9 hPa | 0 mm | - | 31 W/m² | - |
| 1777638855 | -0.56° C | 89% | 1541.3 hPa | 0 mm | - | 27 W/m² | - |
| 1777638555 | -0.56° C | 88% | 1541.4 hPa | 0 mm | - | 25 W/m² | - |
| 1777638254 | -0.56° C | 88% | 1541.1 hPa | 0 mm | - | 20 W/m² | - |
| 1777637954 | -0.56° C | 87% | 1541 hPa | 0 mm | - | 17 W/m² | - |
| 1777637653 | 0° C | 86% | 1540.8 hPa | 0 mm | - | 13 W/m² | - |
| 1777637353 | 0° C | 88% | 1540.9 hPa | 0 mm | - | 9 W/m² | - |
| 1777637052 | -0.56° C | 88% | 1541.1 hPa | 0 mm | - | 6 W/m² | - |
| 1777636751 | -0.56° C | 89% | 1541.3 hPa | 0 mm | - | 4 W/m² | - |
| 1777636450 | -0.56° C | 89% | 1541.8 hPa | 0 mm | - | 1 W/m² | - |
| 1777636150 | -0.56° C | 88% | 1542 hPa | 0 mm | - | 1 W/m² | - |
| 1777635849 | -0.56° C | 87% | 1541.7 hPa | 0 mm | - | 0 W/m² | - |
| 1777635548 | -0.56° C | 86% | 1541.2 hPa | 0 mm | - | 0 W/m² | - |
| 1777635248 | 0° C | 86% | 1540.6 hPa | 0 mm | - | 0 W/m² | - |
| 1777634947 | 0° C | 85% | 1540.1 hPa | 0 mm | - | 0 W/m² | - |
| 1777634647 | 0° C | 86% | 1540.2 hPa | 0 mm | - | 0 W/m² | - |
| 1777634346 | 0° C | 87% | 1540.1 hPa | 0 mm | - | 0 W/m² | - |
| 1777634045 | 0° C | 86% | 1539.8 hPa | 0 mm | - | 0 W/m² | - |
| 1777633745 | 0° C | 87% | 1539.6 hPa | 0 mm | - | 0 W/m² | - |
| 1777633444 | 0° C | 87% | 1539.9 hPa | 0 mm | - | 0 W/m² | - |
* Rain latest hour (hover to see other rain measurements)
** Current wind speed in m/s (hover to see current wind gust speed)